createdAt,value
2022-12-25T00:00:36.034Z,92.23
2022-12-25T00:03:09.496Z,92.24
2022-12-25T00:05:41.659Z,92.26
2022-12-25T00:08:13.462Z,92.56
2022-12-25T00:10:45.519Z,92.60
2022-12-25T00:13:16.575Z,92.49
2022-12-25T00:15:47.149Z,92.41
2022-12-25T00:18:20.433Z,92.29
2022-12-25T00:20:59.918Z,92.25
2022-12-25T00:23:33.324Z,92.52
2022-12-25T00:26:07.503Z,92.38
2022-12-25T00:28:38.765Z,92.07
2022-12-25T00:31:10.811Z,92.07
2022-12-25T00:33:45.908Z,91.79
2022-12-25T00:36:18.107Z,91.65
2022-12-25T00:38:49.666Z,91.72
2022-12-25T00:41:42.757Z,91.52
2022-12-25T00:44:16.415Z,91.72
2022-12-25T00:46:47.385Z,91.91
2022-12-25T00:49:20.527Z,91.68
2022-12-25T00:51:55.895Z,91.47
2022-12-25T00:54:27.241Z,91.46
2022-12-25T00:56:57.769Z,91.58
2022-12-25T00:59:28.472Z,91.62
2022-12-25T01:02:19.040Z,91.63
2022-12-25T01:04:53.027Z,91.49
2022-12-25T01:07:25.079Z,91.73
2022-12-25T01:10:09.246Z,91.47
2022-12-25T01:12:42.556Z,91.87
2022-12-25T01:15:14.739Z,91.88
2022-12-25T01:17:46.319Z,92.03
2022-12-25T01:20:22.653Z,92.30
2022-12-25T01:22:53.342Z,92.19
2022-12-25T01:25:26.265Z,92.06
2022-12-25T01:27:56.952Z,92.16
2022-12-25T01:30:27.514Z,92.14
2022-12-25T01:33:06.797Z,91.98
2022-12-25T01:35:43.044Z,92.17
2022-12-25T01:38:13.526Z,92.16
2022-12-25T01:40:44.008Z,92.13
2022-12-25T01:43:24.982Z,92.00
2022-12-25T01:45:56.125Z,92.20
2022-12-25T01:48:32.193Z,91.74
2022-12-25T01:51:09.559Z,92.18
2022-12-25T01:53:40.962Z,91.99
2022-12-25T01:56:12.315Z,92.10
2022-12-25T01:58:43.141Z,92.14
2022-12-25T02:01:16.110Z,92.36
2022-12-25T02:03:46.969Z,92.13
2022-12-25T02:06:20.332Z,92.31
2022-12-25T02:08:52.648Z,92.45
2022-12-25T02:11:35.549Z,92.20
2022-12-25T02:14:06.591Z,92.22
2022-12-25T02:16:58.330Z,92.31
2022-12-25T02:19:42.614Z,92.00
2022-12-25T02:22:28.224Z,92.24
2022-12-25T02:25:16.414Z,92.04
2022-12-25T02:28:13.063Z,92.20
2022-12-25T02:30:57.948Z,92.32
2022-12-25T02:33:47.242Z,92.47
2022-12-25T02:36:24.237Z,92.48
2022-12-25T02:39:14.106Z,92.09
2022-12-25T02:41:46.850Z,91.45
2022-12-25T02:44:36.147Z,91.23
2022-12-25T02:47:21.569Z,91.16
2022-12-25T02:50:09.903Z,90.91
2022-12-25T02:52:53.713Z,90.35
2022-12-25T02:55:40.068Z,90.24
2022-12-25T02:58:28.504Z,90.27
2022-12-25T03:01:20.956Z,90.26
2022-12-25T03:04:10.986Z,90.08
2022-12-25T03:06:47.060Z,90.60
2022-12-25T03:09:34.680Z,90.44
2022-12-25T03:12:12.865Z,90.75
2022-12-25T03:14:55.907Z,90.87
2022-12-25T03:17:30.491Z,90.72
2022-12-25T03:20:28.641Z,90.69
2022-12-25T03:23:12.401Z,90.53
2022-12-25T03:25:55.352Z,90.61
2022-12-25T03:28:25.896Z,90.96
2022-12-25T03:31:13.560Z,90.97
2022-12-25T03:34:20.111Z,91.47
2022-12-25T03:37:06.205Z,91.47
2022-12-25T03:39:55.836Z,91.65
2022-12-25T03:42:46.122Z,91.68
2022-12-25T03:45:36.518Z,91.59
2022-12-25T03:48:23.472Z,91.68
2022-12-25T03:51:15.047Z,91.55
2022-12-25T03:54:04.664Z,91.64
2022-12-25T03:56:50.531Z,91.59
2022-12-25T03:59:35.276Z,91.45
2022-12-25T04:02:18.100Z,91.44
2022-12-25T04:05:01.766Z,91.67
2022-12-25T04:07:48.845Z,91.14
2022-12-25T04:10:32.249Z,91.30
2022-12-25T04:13:15.260Z,91.02
2022-12-25T04:15:58.728Z,91.29
2022-12-25T04:18:42.123Z,91.06
2022-12-25T04:21:25.032Z,91.20
2022-12-25T04:24:10.531Z,91.17
2022-12-25T04:26:53.484Z,91.10
2022-12-25T04:29:37.775Z,91.42
2022-12-25T04:32:21.370Z,91.49
2022-12-25T04:35:07.007Z,91.10
2022-12-25T04:37:37.572Z,91.18
2022-12-25T04:40:12.527Z,91.09
2022-12-25T04:42:43.177Z,91.22
2022-12-25T04:45:14.652Z,90.71
2022-12-25T04:47:45.548Z,90.90
2022-12-25T04:50:16.401Z,90.91
2022-12-25T04:52:46.970Z,91.00
2022-12-25T04:55:20.191Z,91.17
2022-12-25T04:57:50.753Z,91.42
2022-12-25T05:00:21.954Z,90.88
2022-12-25T05:02:52.591Z,90.81
2022-12-25T05:05:23.132Z,90.53
2022-12-25T05:07:53.847Z,90.58
2022-12-25T05:10:26.888Z,90.06
2022-12-25T05:12:57.699Z,90.26
2022-12-25T05:15:28.733Z,89.93
2022-12-25T05:17:59.242Z,90.22
2022-12-25T05:20:33.355Z,89.84
2022-12-25T05:23:06.839Z,89.99
2022-12-25T05:25:42.085Z,89.83
2022-12-25T05:28:12.657Z,89.85
2022-12-25T05:30:43.430Z,89.95
2022-12-25T05:33:13.965Z,89.40
2022-12-25T05:35:44.387Z,89.82
2022-12-25T05:38:14.938Z,89.57
2022-12-25T05:40:47.933Z,89.67
2022-12-25T05:43:19.527Z,89.68
2022-12-25T05:45:50.069Z,89.65
2022-12-25T05:48:21.111Z,89.42
2022-12-25T05:50:51.543Z,89.50
2022-12-25T05:53:22.030Z,89.31
2022-12-25T05:55:55.158Z,89.58
2022-12-25T05:58:25.626Z,89.13
2022-12-25T06:00:56.181Z,89.32
2022-12-25T06:03:27.144Z,89.06
2022-12-25T06:05:57.960Z,89.36
2022-12-25T06:08:28.706Z,89.34
2022-12-25T06:11:01.829Z,89.30
2022-12-25T06:13:32.237Z,89.56
2022-12-25T06:16:05.864Z,89.57
2022-12-25T06:18:38.008Z,89.91
2022-12-25T06:21:13.678Z,90.01
2022-12-25T06:23:45.325Z,90.00
2022-12-25T06:26:21.750Z,90.12
2022-12-25T06:28:52.332Z,90.21
2022-12-25T06:31:24.688Z,90.02
2022-12-25T06:33:55.451Z,90.09
2022-12-25T06:36:27.871Z,90.19
2022-12-25T06:38:58.880Z,90.00
2022-12-25T06:41:33.577Z,90.18
2022-12-25T06:44:04.531Z,89.96
2022-12-25T06:46:35.665Z,90.15
2022-12-25T06:49:06.210Z,90.32
2022-12-25T06:51:36.751Z,89.88
2022-12-25T06:54:07.939Z,89.93
2022-12-25T06:56:41.353Z,90.09
2022-12-25T06:59:13.307Z,89.97
2022-12-25T07:01:50.474Z,90.21
2022-12-25T07:04:25.307Z,90.45
2022-12-25T07:06:56.102Z,90.48
2022-12-25T07:09:26.500Z,90.55
2022-12-25T07:12:06.497Z,90.54
2022-12-25T07:14:37.182Z,90.50
2022-12-25T07:17:08.397Z,90.75
2022-12-25T07:19:44.759Z,90.67
2022-12-25T07:22:15.788Z,90.71
2022-12-25T07:24:46.392Z,90.63
2022-12-25T07:27:19.479Z,90.94
2022-12-25T07:29:49.857Z,90.84
2022-12-25T07:32:20.424Z,90.70
2022-12-25T07:34:50.985Z,90.88
2022-12-25T07:37:21.583Z,91.00
2022-12-25T07:39:55.396Z,91.08
2022-12-25T07:42:28.465Z,91.11
2022-12-25T07:44:58.969Z,91.09
2022-12-25T07:47:29.535Z,91.08
2022-12-25T07:50:00.048Z,90.63
2022-12-25T07:52:31.152Z,90.53
2022-12-25T07:55:01.615Z,90.60
2022-12-25T07:57:35.979Z,90.31
2022-12-25T08:00:07.226Z,90.18
2022-12-25T08:02:43.028Z,90.24
2022-12-25T08:05:14.068Z,90.17
2022-12-25T08:07:44.450Z,90.13
2022-12-25T08:10:14.873Z,90.27
2022-12-25T08:12:48.159Z,90.22
2022-12-25T08:15:18.788Z,90.17
2022-12-25T08:17:50.054Z,90.20
2022-12-25T08:20:20.889Z,90.04
2022-12-25T08:22:51.323Z,90.33
2022-12-25T08:25:21.783Z,89.95
2022-12-25T08:27:54.832Z,90.01
2022-12-25T08:30:25.791Z,89.97
2022-12-25T08:32:56.206Z,90.06
2022-12-25T08:35:26.775Z,89.81
2022-12-25T08:37:57.329Z,89.70
2022-12-25T08:40:27.887Z,89.70
2022-12-25T08:43:01.567Z,89.48
2022-12-25T08:45:35.224Z,89.58
2022-12-25T08:48:06.211Z,89.65
2022-12-25T08:50:36.599Z,89.36
2022-12-25T08:53:07.147Z,89.05
2022-12-25T08:55:37.515Z,88.85
2022-12-25T08:58:11.391Z,88.80
2022-12-25T09:00:41.780Z,88.79
2022-12-25T09:03:13.420Z,88.83
2022-12-25T09:05:44.012Z,88.72
2022-12-25T09:08:14.681Z,88.60
2022-12-25T09:10:45.177Z,88.80
2022-12-25T09:13:18.365Z,88.69
2022-12-25T09:15:48.971Z,88.66
2022-12-25T09:18:19.682Z,88.62
2022-12-25T09:20:50.401Z,88.58
2022-12-25T09:23:20.930Z,88.53
2022-12-25T09:25:51.401Z,88.39
2022-12-25T09:28:24.589Z,88.31
2022-12-25T09:30:56.647Z,88.13
2022-12-25T09:33:27.408Z,88.30
2022-12-25T09:35:58.803Z,88.18
2022-12-25T09:38:49.458Z,88.14
2022-12-25T09:41:27.028Z,88.24
2022-12-25T09:44:03.519Z,88.02
2022-12-25T09:46:42.596Z,87.74
2022-12-25T09:49:23.177Z,88.05
2022-12-25T09:52:01.815Z,88.21
2022-12-25T09:54:43.912Z,88.38
2022-12-25T09:57:18.262Z,88.49
2022-12-25T09:59:51.123Z,88.45
2022-12-25T10:02:54.201Z,88.54
2022-12-25T10:05:41.577Z,88.58
2022-12-25T10:08:20.893Z,88.41
2022-12-25T10:11:07.025Z,88.36
2022-12-25T10:13:53.805Z,88.39
2022-12-25T10:16:34.806Z,88.58
2022-12-25T10:19:17.935Z,88.41
2022-12-25T10:21:49.545Z,88.45
2022-12-25T10:24:36.258Z,88.65
2022-12-25T10:27:17.537Z,88.53
2022-12-25T10:29:52.704Z,88.33
2022-12-25T10:32:26.025Z,88.35
2022-12-25T10:34:57.210Z,88.49
2022-12-25T10:37:28.191Z,88.39
2022-12-25T10:39:58.699Z,88.41
2022-12-25T10:42:42.135Z,88.34
2022-12-25T10:45:13.461Z,88.10
2022-12-25T10:47:50.027Z,87.97
2022-12-25T10:50:28.671Z,88.18
2022-12-25T10:53:04.469Z,88.22
2022-12-25T10:55:38.431Z,88.08
2022-12-25T10:58:09.236Z,88.23
2022-12-25T11:00:40.185Z,88.24
2022-12-25T11:03:24.908Z,87.99
2022-12-25T11:05:55.669Z,88.09
2022-12-25T11:08:28.771Z,87.94
2022-12-25T11:11:06.262Z,88.26
2022-12-25T11:13:42.096Z,88.37
2022-12-25T11:16:17.437Z,88.50
2022-12-25T11:18:53.158Z,88.50
2022-12-25T11:21:27.340Z,88.52
2022-12-25T11:24:03.253Z,88.62
2022-12-25T11:26:39.351Z,88.65
2022-12-25T11:29:33.825Z,88.75
2022-12-25T11:32:07.927Z,88.60
2022-12-25T11:34:46.851Z,88.70
2022-12-25T11:37:20.350Z,88.66
2022-12-25T11:39:51.250Z,88.40
2022-12-25T11:42:27.496Z,88.20
2022-12-25T11:45:06.920Z,88.06
2022-12-25T11:47:45.906Z,87.80
2022-12-25T11:50:31.500Z,87.83
2022-12-25T11:53:05.306Z,87.87
2022-12-25T11:55:47.271Z,87.90
2022-12-25T11:58:23.346Z,87.80
2022-12-25T12:00:57.364Z,87.78
2022-12-25T12:03:31.978Z,87.83
2022-12-25T12:06:08.362Z,87.71
2022-12-25T12:08:39.499Z,87.96
2022-12-25T12:11:19.575Z,88.04
2022-12-25T12:14:02.668Z,88.41
2022-12-25T12:16:33.651Z,88.41
2022-12-25T12:19:34.831Z,88.75
2022-12-25T12:22:08.489Z,88.69
2022-12-25T12:24:41.958Z,88.99
2022-12-25T12:27:25.041Z,88.93
2022-12-25T12:29:58.581Z,89.20
2022-12-25T12:32:40.841Z,89.09
2022-12-25T12:35:18.859Z,89.33
2022-12-25T12:37:56.212Z,89.10
2022-12-25T12:40:39.507Z,89.43
2022-12-25T12:43:30.243Z,89.30
2022-12-25T12:46:05.349Z,89.36
2022-12-25T12:48:43.662Z,89.56
2022-12-25T12:51:16.776Z,89.30
2022-12-25T12:53:52.316Z,89.31
2022-12-25T12:56:23.803Z,89.34
2022-12-25T12:58:54.291Z,89.30
2022-12-25T13:01:54.150Z,89.31
2022-12-25T13:04:48.936Z,89.27
2022-12-25T13:07:45.019Z,89.13
2022-12-25T13:10:31.802Z,89.22
2022-12-25T13:13:06.037Z,89.26
2022-12-25T13:15:37.571Z,89.49
2022-12-25T13:18:10.575Z,89.42
2022-12-25T13:20:55.310Z,89.31
2022-12-25T13:23:32.496Z,89.44
2022-12-25T13:26:08.173Z,89.75
2022-12-25T13:28:40.007Z,89.72
2022-12-25T13:31:22.669Z,89.67
2022-12-25T13:33:58.985Z,89.74
2022-12-25T13:36:31.824Z,89.80
2022-12-25T13:39:02.850Z,89.68
2022-12-25T13:41:57.401Z,89.84
2022-12-25T13:44:31.564Z,89.80
2022-12-25T13:47:22.233Z,89.75
2022-12-25T13:49:54.114Z,89.89
2022-12-25T13:52:31.007Z,89.89
2022-12-25T13:55:03.522Z,90.11
2022-12-25T13:57:41.424Z,90.09
2022-12-25T14:00:21.347Z,89.91
2022-12-25T14:02:53.521Z,89.91
2022-12-25T14:05:28.346Z,89.91
2022-12-25T14:08:01.042Z,89.94
2022-12-25T14:10:33.792Z,89.86
2022-12-25T14:13:09.985Z,89.83
2022-12-25T14:15:43.210Z,89.93
2022-12-25T14:18:17.394Z,90.17
2022-12-25T14:21:01.606Z,90.25
2022-12-25T14:23:42.271Z,90.21
2022-12-25T14:26:18.795Z,90.26
2022-12-25T14:28:55.571Z,90.17
2022-12-25T14:31:32.475Z,90.15
2022-12-25T14:34:05.925Z,90.04
2022-12-25T14:36:37.344Z,90.10
2022-12-25T14:39:10.227Z,90.09
2022-12-25T14:41:42.243Z,89.98
2022-12-25T14:44:39.899Z,90.20
2022-12-25T14:47:19.701Z,90.26
2022-12-25T14:49:53.795Z,90.20
2022-12-25T14:52:28.084Z,90.38
2022-12-25T14:55:00.921Z,90.51
2022-12-25T14:57:36.342Z,90.42
2022-12-25T15:00:25.456Z,90.35
2022-12-25T15:02:58.834Z,90.42
2022-12-25T15:05:33.478Z,90.65
2022-12-25T15:08:07.732Z,90.63
2022-12-25T15:13:30.276Z,90.86
2022-12-25T15:16:09.038Z,90.71
2022-12-25T15:18:42.572Z,91.08
2022-12-25T15:21:19.467Z,90.99
2022-12-25T15:23:53.106Z,91.05
2022-12-25T15:26:23.818Z,91.19
2022-12-25T15:28:57.820Z,91.13
2022-12-25T15:31:32.724Z,91.07
2022-12-25T15:34:06.089Z,91.28
2022-12-25T15:36:36.890Z,91.30
2022-12-25T15:39:07.485Z,91.23
2022-12-25T15:41:52.757Z,91.49
2022-12-25T15:44:23.480Z,91.38
2022-12-25T15:46:57.950Z,91.44
2022-12-25T15:49:28.428Z,91.62
2022-12-25T15:51:59.277Z,91.52
2022-12-25T15:54:30.758Z,91.51
2022-12-25T15:57:07.506Z,91.33
2022-12-25T15:59:38.716Z,91.41
2022-12-25T16:02:18.002Z,91.61
2022-12-25T16:04:58.155Z,91.79
2022-12-25T16:07:29.417Z,91.96
2022-12-25T16:09:59.885Z,91.77
2022-12-25T16:12:30.560Z,91.99
2022-12-25T16:15:01.064Z,91.87
2022-12-25T16:17:34.169Z,91.86
2022-12-25T16:20:04.786Z,92.09
2022-12-25T16:22:39.977Z,91.94
2022-12-25T16:25:16.866Z,92.07
2022-12-25T16:27:47.378Z,91.81
2022-12-25T16:30:20.625Z,91.90
2022-12-25T16:32:54.183Z,91.74
2022-12-25T16:35:24.843Z,92.14
2022-12-25T16:37:55.370Z,92.07
2022-12-25T16:40:25.925Z,91.97
2022-12-25T16:42:58.052Z,92.03
2022-12-25T16:45:28.511Z,91.95
2022-12-25T16:48:02.345Z,92.05
2022-12-25T16:50:32.708Z,91.92
2022-12-25T16:53:03.205Z,91.98
2022-12-25T16:55:34.231Z,91.86
2022-12-25T16:58:04.618Z,92.02
2022-12-25T17:00:35.351Z,92.13
2022-12-25T17:03:08.883Z,92.14
2022-12-25T17:05:39.563Z,91.93
2022-12-25T17:08:10.163Z,92.00
2022-12-25T17:10:45.876Z,92.02
2022-12-25T17:13:17.224Z,91.99
2022-12-25T17:15:50.604Z,91.81
2022-12-25T17:18:23.926Z,91.92
2022-12-25T17:20:56.399Z,91.92
2022-12-25T17:23:26.800Z,91.95
2022-12-25T17:25:57.268Z,91.83
2022-12-25T17:28:27.662Z,92.02
2022-12-25T17:30:58.336Z,91.84
2022-12-25T17:33:31.321Z,91.91
2022-12-25T17:36:04.892Z,91.66
2022-12-25T17:38:36.442Z,91.76
2022-12-25T17:41:09.849Z,91.67
2022-12-25T17:43:42.273Z,91.92
2022-12-25T17:46:15.657Z,91.82
2022-12-25T17:48:50.110Z,91.57
2022-12-25T17:51:25.008Z,91.56
2022-12-25T17:53:57.599Z,91.64
2022-12-25T17:56:32.027Z,91.57
2022-12-25T17:59:06.822Z,91.54
2022-12-25T18:01:39.174Z,91.59
2022-12-25T18:04:13.202Z,91.52
2022-12-25T18:06:53.890Z,91.44
2022-12-25T18:09:25.057Z,91.52
2022-12-25T18:11:59.903Z,91.45
2022-12-25T18:14:30.431Z,91.38
2022-12-25T18:17:00.886Z,91.46
2022-12-25T18:19:34.466Z,91.43
2022-12-25T18:22:06.932Z,91.54
2022-12-25T18:24:40.302Z,91.55
2022-12-25T18:27:10.738Z,91.52
2022-12-25T18:29:41.264Z,91.63
2022-12-25T18:32:11.819Z,91.69
2022-12-25T18:34:44.965Z,91.53
2022-12-25T18:37:16.405Z,91.95
2022-12-25T18:39:46.940Z,91.91
2022-12-25T18:42:29.806Z,91.66
2022-12-25T18:45:02.100Z,91.61
2022-12-25T18:47:32.801Z,91.73
2022-12-25T18:50:06.462Z,91.82
2022-12-25T18:52:48.166Z,91.81
2022-12-25T18:55:21.859Z,91.93
2022-12-25T18:57:55.871Z,91.72
2022-12-25T19:00:28.241Z,91.62
2022-12-25T19:03:00.826Z,91.62
2022-12-25T19:05:34.008Z,91.74
2022-12-25T19:08:04.469Z,91.62
2022-12-25T19:10:36.088Z,91.34
2022-12-25T19:13:06.750Z,91.50
2022-12-25T19:15:42.998Z,91.63
2022-12-25T19:18:14.009Z,91.42
2022-12-25T19:20:47.156Z,91.43
2022-12-25T19:23:17.849Z,91.54
2022-12-25T19:25:49.789Z,91.43
2022-12-25T19:28:20.590Z,91.32
2022-12-25T19:30:52.853Z,91.23
2022-12-25T19:33:24.312Z,91.36
2022-12-25T19:36:01.476Z,91.62
2022-12-25T19:38:32.493Z,91.54
2022-12-25T19:41:07.640Z,91.59
2022-12-25T19:43:40.358Z,91.23
2022-12-25T19:46:13.960Z,91.14
2022-12-25T19:48:44.572Z,91.10
2022-12-25T19:51:24.025Z,91.04
2022-12-25T19:53:56.212Z,91.31
2022-12-25T19:56:27.574Z,91.07
2022-12-25T19:58:59.454Z,91.14
2022-12-25T20:01:33.471Z,91.03
2022-12-25T20:04:09.922Z,91.00
2022-12-25T20:06:48.847Z,91.03
2022-12-25T20:09:22.993Z,90.97
2022-12-25T20:11:55.907Z,90.98
2022-12-25T20:14:26.408Z,91.02
2022-12-25T20:16:57.121Z,91.14
2022-12-25T20:19:27.666Z,90.82
2022-12-25T20:22:00.726Z,91.05
2022-12-25T20:24:34.155Z,90.88
2022-12-25T20:27:04.774Z,90.94
2022-12-25T20:29:35.261Z,90.80
2022-12-25T20:32:09.635Z,90.83
2022-12-25T20:34:40.250Z,90.92
2022-12-25T20:37:13.475Z,90.54
2022-12-25T20:39:44.993Z,90.70
2022-12-25T20:42:18.073Z,90.47
2022-12-25T20:44:48.806Z,90.53
2022-12-25T20:47:19.577Z,90.51
2022-12-25T20:49:53.123Z,90.31
2022-12-25T20:52:26.221Z,90.42
2022-12-25T20:54:57.723Z,90.14
2022-12-25T20:57:30.460Z,90.13
2022-12-25T21:00:01.007Z,90.17
2022-12-25T21:02:35.488Z,89.95
2022-12-25T21:05:08.067Z,90.05
2022-12-25T21:07:41.092Z,90.13
2022-12-25T21:10:12.876Z,90.06
2022-12-25T21:12:43.863Z,90.28
2022-12-25T21:15:16.077Z,90.39
2022-12-25T21:17:46.944Z,90.60
2022-12-25T21:20:17.703Z,90.48
2022-12-25T21:22:51.498Z,90.65
2022-12-25T21:25:26.316Z,90.75
2022-12-25T21:27:57.931Z,90.90
2022-12-25T21:30:28.595Z,90.96
2022-12-25T21:33:11.786Z,91.17
2022-12-25T21:35:42.499Z,90.97
2022-12-25T21:38:15.964Z,90.94
2022-12-25T21:40:46.587Z,90.90
2022-12-25T21:43:17.080Z,91.07
2022-12-25T21:45:48.898Z,91.03
2022-12-25T21:48:19.442Z,91.27
2022-12-25T21:51:02.342Z,91.36
2022-12-25T21:53:37.713Z,91.35
2022-12-25T21:56:11.239Z,91.34
2022-12-25T21:58:41.838Z,91.06
2022-12-25T22:01:16.633Z,91.18
2022-12-25T22:03:47.677Z,91.22
2022-12-25T22:06:30.538Z,91.18
2022-12-25T22:09:03.590Z,91.07
2022-12-25T22:11:46.527Z,91.36
2022-12-25T22:14:51.325Z,91.19
2022-12-25T22:17:35.527Z,91.46
2022-12-25T22:20:15.283Z,91.31
2022-12-25T22:22:45.959Z,91.50
2022-12-25T22:25:19.538Z,91.52
2022-12-25T22:27:51.842Z,91.47
2022-12-25T22:30:24.500Z,91.51
2022-12-25T22:32:55.209Z,91.71
2022-12-25T22:35:26.351Z,91.76
2022-12-25T22:37:57.518Z,91.91
2022-12-25T22:40:31.628Z,91.75
2022-12-25T22:43:02.041Z,91.78
2022-12-25T22:45:32.615Z,91.83
2022-12-25T22:48:06.128Z,91.85
2022-12-25T22:50:36.624Z,92.17
2022-12-25T22:53:07.118Z,92.11
2022-12-25T22:55:40.566Z,91.93
2022-12-25T22:58:23.923Z,92.31
2022-12-25T23:00:54.747Z,92.22
2022-12-25T23:03:25.402Z,92.18
2022-12-25T23:05:57.573Z,92.33
2022-12-25T23:08:28.072Z,92.35
2022-12-25T23:11:04.526Z,92.12
2022-12-25T23:13:47.559Z,92.30
2022-12-25T23:16:19.582Z,92.11
2022-12-25T23:19:02.496Z,92.21
2022-12-25T23:21:45.524Z,92.40
2022-12-25T23:24:28.688Z,92.30
2022-12-25T23:27:01.809Z,92.56
2022-12-25T23:29:40.028Z,92.27
2022-12-25T23:32:12.945Z,92.29
2022-12-25T23:34:45.276Z,92.11
2022-12-25T23:37:16.559Z,92.26
2022-12-25T23:39:52.960Z,92.16
2022-12-25T23:42:26.660Z,92.40
2022-12-25T23:44:57.072Z,92.50
2022-12-25T23:47:30.472Z,92.22
2022-12-25T23:50:01.037Z,92.22
2022-12-25T23:52:33.498Z,92.27
2022-12-25T23:55:03.884Z,92.30
2022-12-25T23:57:37.068Z,92.34
